NCAR-RAP Real-Time Weather Data

Output produced by METARs form (16 November 2018  17:37 UTC)
found at http://weather.rap.ucar.edu/surface/
 
Conditions at: KIND observed 16 November 2018  16:54 UTC
Temperature: 2.2°C (36°F)
Dewpoint: -0.6°C (31°F) [RH = 82%]
Pressure (altimeter): 30.01 inches Hg (1016.3 mb)
[Sea-level pressure: 1016.9 mb]
Winds: from the WSW (250 degrees) at 13 MPH (11 knots; 5.7 m/s)
Visibility: 10 or more miles (16+ km)
Ceiling: 2500 feet AGL
Clouds: overcast cloud deck at 2500 feet AGL
Present Weather: no significant weather observed at this time
KIND 161654Z 25011KT 10SM OVC025 02/M01 A3001 RMK AO2 SLP169 T00221006